Time;durP1;ratioP1;P1;durP2;ratioP2;P2;SDS_P1;SDS_P2;PMS_P1;PMS_P2;Temp;Humidity;BMP_temperature;BMP_pressure;BME280_temperature;BME280_humidity;BME280_pressure;Samples;Min_cycle;Max_cycle;Signal;HPM_P1;HPM_P2
2023/07/06 00:02:53;;;;;;;0.20;0.20;;;24.20;51.10;;;;;;6149946;28;20039;-49
2023/07/06 00:05:55;;;;;;;0.40;0.30;;;24.30;51.10;;;;;;6149780;28;20074;-49
2023/07/06 00:08:58;;;;;;;0.40;0.30;;;24.40;51.00;;;;;;6150851;28;20028;-46
2023/07/06 00:12:02;;;;;;;0.47;0.30;;;24.40;51.20;;;;;;6149228;28;20047;-47
2023/07/06 00:15:05;;;;;;;0.50;0.25;;;24.30;51.00;;;;;;6149426;28;20113;-44
2023/07/06 00:18:07;;;;;;;0.50;0.30;;;24.30;51.00;;;;;;6150052;28;20382;-46
2023/07/06 00:21:09;;;;;;;0.35;0.30;;;24.20;51.00;;;;;;6150376;28;20032;-48
2023/07/06 00:24:11;;;;;;;1.10;0.50;;;24.20;51.10;;;;;;6150203;28;20122;-46
2023/07/06 00:27:15;;;;;;;1.23;0.22;;;24.20;51.80;;;;;;6150372;28;20035;-46
2023/07/06 00:30:18;;;;;;;0.70;0.47;;;24.10;51.00;;;;;;6151111;28;20051;-51
2023/07/06 00:33:23;;;;;;;0.30;0.30;;;24.30;51.10;;;;;;6150289;28;20075;-47
2023/07/06 00:36:28;;;;;;;0.68;0.40;;;24.20;51.10;;;;;;6133853;28;20055;-48
2023/07/06 00:39:30;;;;;;;0.40;0.30;;;24.20;51.20;;;;;;6126161;28;20828;-56
2023/07/06 00:42:31;;;;;;;0.73;0.50;;;24.10;51.20;;;;;;6098417;29;20043;-57
2023/07/06 00:45:34;;;;;;;0.50;0.30;;;24.50;51.40;;;;;;6097772;29;20063;-57
2023/07/06 00:48:39;;;;;;;0.45;0.30;;;24.50;51.40;;;;;;6100999;29;20813;-57
2023/07/06 00:51:44;;;;;;;0.50;0.40;;;24.20;51.20;;;;;;6100982;29;20036;-57
2023/07/06 00:54:46;;;;;;;0.80;0.40;;;24.20;51.40;;;;;;6103717;29;20039;-56
2023/07/06 00:57:51;;;;;;;0.30;0.30;;;23.80;51.10;;;;;;6102778;29;20043;-56
2023/07/06 01:00:56;;;;;;;0.40;0.30;;;24.30;51.40;;;;;;6102576;29;20040;-57
2023/07/06 01:04:01;;;;;;;1.10;0.45;;;24.10;51.60;;;;;;6102453;29;20040;-57
2023/07/06 01:07:04;;;;;;;0.45;0.40;;;24.10;51.50;;;;;;6102554;29;20039;-58
2023/07/06 01:10:08;;;;;;;0.50;0.30;;;24.10;51.40;;;;;;6135843;29;20024;-50
2023/07/06 01:13:10;;;;;;;0.50;0.30;;;23.90;51.40;;;;;;6139633;29;20040;-51
2023/07/06 01:16:18;;;;;;;0.35;0.20;;;24.00;51.50;;;;;;6140937;28;20039;-50
2023/07/06 01:19:53;;;;;;;0.45;0.30;;;24.40;51.60;;;;;;6134458;29;20048;-52
2023/07/06 01:23:20;;;;;;;0.30;0.30;;;24.10;51.50;;;;;;6151168;23;20044;-57
2023/07/06 01:26:37;;;;;;;0.57;0.30;;;24.10;52.00;;;;;;6102817;29;20043;-57
2023/07/06 01:29:53;;;;;;;0.50;0.20;;;23.70;51.30;;;;;;6102634;29;20063;-57
2023/07/06 01:33:02;;;;;;;0.30;0.28;;;24.10;51.60;;;;;;6102385;29;20040;-57
2023/07/06 01:36:10;;;;;;;0.40;0.30;;;24.10;51.60;;;;;;6103461;29;20073;-57
2023/07/06 01:39:14;;;;;;;0.20;0.17;;;24.10;52.00;;;;;;6102428;29;20048;-57
2023/07/06 01:42:29;;;;;;;0.77;0.40;;;24.00;51.50;;;;;;6103296;29;20039;-57
2023/07/06 01:45:31;;;;;;;0.45;0.30;;;24.10;52.10;;;;;;6103696;29;20098;-57
2023/07/06 01:48:34;;;;;;;0.57;0.32;;;24.00;51.80;;;;;;6103520;29;20074;-57
2023/07/06 01:51:44;;;;;;;0.30;0.20;;;23.90;52.00;;;;;;6102583;29;20836;-57
2023/07/06 01:54:58;;;;;;;0.43;0.35;;;23.50;51.40;;;;;;6100357;29;20054;-57
2023/07/06 01:58:10;;;;;;;0.38;0.30;;;23.90;51.70;;;;;;6100610;29;20403;-57
2023/07/06 02:01:13;;;;;;;;;;;23.90;51.70;;;;;;6101886;29;20566;-58
2023/07/06 02:04:20;;;;;;;0.30;0.20;;;24.00;52.10;;;;;;6098492;29;19930;-57
2023/07/06 02:07:24;;;;;;;0.20;0.20;;;24.00;51.90;;;;;;6100567;29;20264;-57
2023/07/06 02:10:25;;;;;;;0.52;0.30;;;24.00;52.20;;;;;;6099898;29;20047;-57
2023/07/06 02:13:27;;;;;;;0.20;0.20;;;24.00;52.00;;;;;;6109936;29;20055;-57
2023/07/06 02:16:31;;;;;;;0.40;0.20;;;23.80;51.90;;;;;;6121225;29;20102;-57
2023/07/06 02:19:35;;;;;;;0.50;0.40;;;23.80;51.90;;;;;;6120851;29;20525;-56
2023/07/06 02:22:36;;;;;;;0.30;0.25;;;23.80;50.20;;;;;;6120514;29;20043;-57
2023/07/06 02:25:39;;;;;;;0.45;0.30;;;23.80;51.90;;;;;;6121084;29;20039;-57
2023/07/06 02:28:42;;;;;;;0.20;0.20;;;23.70;52.00;;;;;;6120533;29;20091;-57
2023/07/06 02:31:46;;;;;;;0.40;0.30;;;23.60;51.70;;;;;;6120188;29;20047;-57
2023/07/06 02:34:48;;;;;;;0.63;0.40;;;23.70;51.90;;;;;;6120387;29;20400;-57
2023/07/06 02:37:50;;;;;;;0.40;0.30;;;23.40;51.70;;;;;;6119424;29;20044;-57
2023/07/06 02:40:51;;;;;;;0.40;0.30;;;23.70;52.00;;;;;;6120475;29;20047;-57
2023/07/06 02:43:56;;;;;;;1.13;0.30;;;23.80;51.90;;;;;;6120133;29;20044;-57
2023/07/06 02:47:03;;;;;;;0.30;0.20;;;24.60;52.20;;;;;;6119976;29;20040;-57
2023/07/06 02:50:11;;;;;;;0.43;0.40;;;23.80;50.20;;;;;;6119926;29;20039;-57
2023/07/06 02:53:12;;;;;;;0.32;0.20;;;23.90;51.80;;;;;;6120021;29;20094;-57
2023/07/06 02:56:14;;;;;;;0.40;0.30;;;23.70;51.90;;;;;;6119988;29;20052;-57
2023/07/06 02:59:18;;;;;;;0.40;0.30;;;23.70;51.90;;;;;;6119871;29;20040;-57
2023/07/06 03:02:20;;;;;;;0.30;0.22;;;23.70;50.10;;;;;;6119447;29;20129;-57
2023/07/06 03:05:23;;;;;;;0.50;0.30;;;23.70;51.80;;;;;;6119635;29;20039;-57
2023/07/06 03:08:25;;;;;;;0.20;0.17;;;23.70;51.50;;;;;;6119574;29;20044;-57
2023/07/06 03:11:27;;;;;;;0.40;0.30;;;23.80;51.80;;;;;;6120058;29;20044;-57
2023/07/06 03:14:31;;;;;;;0.40;0.30;;;23.70;51.80;;;;;;6119364;29;20052;-57
2023/07/06 03:17:33;;;;;;;0.38;0.30;;;23.60;51.80;;;;;;6118509;29;20040;-57
2023/07/06 03:20:36;;;;;;;0.63;0.30;;;23.60;51.80;;;;;;6119444;29;20043;-57
2023/07/06 03:23:37;;;;;;;0.40;0.40;;;23.60;51.70;;;;;;6125039;29;20083;-57
2023/07/06 03:26:43;;;;;;;0.65;0.30;;;23.60;51.90;;;;;;6134380;29;20098;-57
2023/07/06 03:29:45;;;;;;;0.30;0.20;;;23.60;51.70;;;;;;6128989;29;20499;-57
2023/07/06 03:32:46;;;;;;;0.50;0.30;;;23.40;51.70;;;;;;6127767;29;20533;-57
2023/07/06 03:35:53;;;;;;;0.47;0.30;;;23.60;51.90;;;;;;6128841;29;20040;-57
2023/07/06 03:38:57;;;;;;;0.25;0.25;;;23.60;51.70;;;;;;6131932;29;20058;-55
2023/07/06 03:42:01;;;;;;;0.40;0.30;;;23.70;52.00;;;;;;6133203;29;20404;-57
2023/07/06 03:45:05;;;;;;;0.75;0.30;;;23.60;51.60;;;;;;6136641;29;20075;-57
2023/07/06 03:48:08;;;;;;;0.60;0.30;;;23.60;52.00;;;;;;6135434;29;20146;-57
2023/07/06 03:51:13;;;;;;;0.47;0.35;;;23.60;51.80;;;;;;6138860;29;20539;-57
2023/07/06 03:54:14;;;;;;;0.60;0.40;;;23.40;51.80;;;;;;6152606;29;20043;-56
2023/07/06 03:57:16;;;;;;;0.45;0.30;;;23.50;51.90;;;;;;6154130;29;20080;-56
2023/07/06 04:00:21;;;;;;;0.30;0.20;;;23.50;51.90;;;;;;6153465;29;20027;-56
2023/07/06 04:03:23;;;;;;;0.40;0.22;;;23.50;51.90;;;;;;6138229;29;20048;-57
2023/07/06 04:06:27;;;;;;;0.45;0.40;;;23.50;52.00;;;;;;6154049;29;20071;-57
2023/07/06 04:09:29;;;;;;;0.40;0.30;;;23.60;51.90;;;;;;6151641;29;20035;-57
2023/07/06 04:12:37;;;;;;;0.40;0.30;;;23.60;52.00;;;;;;6151467;29;20040;-57
2023/07/06 04:15:41;;;;;;;0.40;0.20;;;23.50;51.90;;;;;;6153194;29;20051;-57
2023/07/06 04:18:44;;;;;;;0.30;0.30;;;24.30;52.40;;;;;;6152770;29;20083;-56
2023/07/06 04:21:47;;;;;;;0.40;0.30;;;23.50;52.00;;;;;;6153289;29;20324;-57
2023/07/06 04:24:49;;;;;;;0.57;0.40;;;23.40;51.90;;;;;;6156434;29;20047;-57
2023/07/06 04:27:50;;;;;;;;;;;23.40;52.10;;;;;;6157708;29;20036;-57
2023/07/06 04:30:52;;;;;;;0.60;0.40;;;23.70;52.60;;;;;;6156597;29;19911;-55
2023/07/06 04:33:54;;;;;;;0.63;0.40;;;23.40;51.90;;;;;;6158919;29;20020;-56
2023/07/06 04:36:56;;;;;;;0.30;0.25;;;23.40;52.20;;;;;;6156449;29;20040;-57
2023/07/06 04:39:57;;;;;;;0.40;0.30;;;23.30;52.10;;;;;;6148465;29;20039;-56
2023/07/06 04:42:59;;;;;;;0.57;0.38;;;23.50;52.20;;;;;;6147959;29;20051;-57
2023/07/06 04:46:00;;;;;;;0.65;0.40;;;23.20;52.10;;;;;;6148800;29;20040;-57
2023/07/06 04:49:05;;;;;;;1.60;0.40;;;23.40;52.30;;;;;;6150378;29;20071;-56
2023/07/06 04:52:11;;;;;;;0.70;0.40;;;23.50;50.40;;;;;;6150200;29;20074;-57
2023/07/06 04:55:13;;;;;;;0.75;0.50;;;23.30;52.20;;;;;;6150965;29;20036;-56
2023/07/06 04:58:15;;;;;;;0.45;0.40;;;23.40;52.00;;;;;;6150717;29;20050;-56
2023/07/06 05:01:16;;;;;;;1.23;0.80;;;23.40;52.20;;;;;;6149000;29;20039;-56
2023/07/06 05:04:18;;;;;;;3.63;0.90;;;23.40;52.30;;;;;;6150829;29;20143;-57
2023/07/06 05:07:21;;;;;;;3.25;0.85;;;23.30;52.40;;;;;;6149475;29;20040;-56
2023/07/06 05:10:23;;;;;;;2.10;1.10;;;23.30;52.30;;;;;;6145735;29;20047;-56
2023/07/06 05:13:25;;;;;;;2.33;1.20;;;23.10;52.80;;;;;;6143595;29;20098;-57
2023/07/06 05:16:26;;;;;;;2.85;1.38;;;23.10;53.10;;;;;;6148427;29;20050;-57
2023/07/06 05:19:28;;;;;;;2.42;1.42;;;23.00;53.30;;;;;;6154780;29;20308;-57
2023/07/06 05:22:30;;;;;;;1.55;0.90;;;23.00;53.30;;;;;;6144484;29;20360;-57
2023/07/06 05:25:33;;;;;;;2.05;1.02;;;22.50;53.40;;;;;;6140277;29;20539;-57
2023/07/06 05:28:34;;;;;;;3.92;1.63;;;22.80;53.50;;;;;;6143974;29;20039;-57
2023/07/06 05:31:36;;;;;;;2.63;1.45;;;23.00;54.00;;;;;;6141496;29;20043;-56
2023/07/06 05:34:39;;;;;;;3.30;0.98;;;23.00;54.00;;;;;;6142412;29;20047;-57
2023/07/06 05:37:41;;;;;;;1.63;0.93;;;22.90;54.10;;;;;;6145778;29;20044;-55
2023/07/06 05:40:43;;;;;;;2.47;1.10;;;22.80;54.00;;;;;;6147222;29;20051;-57
2023/07/06 05:43:44;;;;;;;3.92;1.10;;;23.00;54.30;;;;;;6146754;29;20043;-57
2023/07/06 05:46:46;;;;;;;;;;;23.00;54.40;;;;;;6141223;29;20082;-57
2023/07/06 05:49:48;;;;;;;2.88;0.90;;;22.70;54.50;;;;;;6149453;29;19946;-57
2023/07/06 05:52:50;;;;;;;2.42;1.27;;;22.80;54.20;;;;;;6151137;29;20051;-56
2023/07/06 05:55:51;;;;;;;4.05;1.23;;;22.80;54.40;;;;;;6152792;29;20023;-57
2023/07/06 05:58:53;;;;;;;;;;;22.70;54.40;;;;;;6151246;29;20058;-53
2023/07/06 06:01:54;;;;;;;2.10;1.08;;;22.90;55.00;;;;;;6147303;29;19934;-55
2023/07/06 06:05:00;;;;;;;3.70;1.30;;;22.80;54.60;;;;;;6155132;29;20057;-57
2023/07/06 06:08:02;;;;;;;3.22;0.90;;;22.90;55.00;;;;;;6154589;28;20099;-57
2023/07/06 06:11:04;;;;;;;1.27;0.80;;;22.70;55.00;;;;;;6156393;28;20027;-53
2023/07/06 06:14:05;;;;;;;2.08;1.10;;;22.80;55.30;;;;;;6152125;28;20032;-54
2023/07/06 06:17:10;;;;;;;1.50;0.80;;;22.70;55.30;;;;;;6157270;28;20036;-58
2023/07/06 06:34:17;;;;;;;1.13;0.60;;;22.70;53.40;;;;;;6495894;23;20039;-56
2023/07/06 06:37:20;;;;;;;1.33;0.82;;;23.00;55.40;;;;;;6156101;28;20043;-57
2023/07/06 06:40:22;;;;;;;1.38;0.50;;;22.80;55.50;;;;;;6806115;23;20039;-56
2023/07/06 06:50:49;;;;;;;2.20;0.52;;;22.90;53.40;;;;;;6636195;23;20044;-54
2023/07/06 07:00:57;;;;;;;0.93;0.50;;;22.70;53.50;;;;;;6437559;23;20075;-56
2023/07/06 07:04:00;;;;;;;0.85;0.60;;;22.00;55.40;;;;;;6308980;23;20039;-54
2023/07/06 07:07:03;;;;;;;2.10;1.08;;;22.90;55.80;;;;;;6287752;23;20102;-52
2023/07/06 07:10:09;;;;;;;1.20;0.68;;;22.90;55.60;;;;;;6142187;28;20086;-54
2023/07/06 07:17:03;;;;;;;1.30;0.68;;;22.80;53.70;;;;;;6148555;23;20717;-58
2023/07/06 07:27:17;;;;;;;1.77;0.80;;;23.10;54.00;;;;;;6246251;23;20044;-59
2023/07/06 07:30:20;;;;;;;1.90;0.60;;;22.90;56.00;;;;;;6110098;28;20452;-62
2023/07/06 07:33:21;;;;;;;0.65;0.40;;;23.00;55.70;;;;;;6095147;29;20044;-59
2023/07/06 07:39:41;;;;;;;2.70;0.68;;;22.80;54.00;;;;;;6091629;28;20044;-60
2023/07/06 07:42:46;;;;;;;2.00;0.70;;;22.70;55.80;;;;;;6103504;28;20062;-60
2023/07/06 07:49:13;;;;;;;1.05;0.40;;;23.00;54.20;;;;;;6095931;29;20067;-59
2023/07/06 07:52:19;;;;;;;1.00;0.57;;;23.10;55.60;;;;;;6301461;23;20032;-63
2023/07/06 07:55:21;;;;;;;0.90;0.40;;;23.20;55.90;;;;;;6183345;23;20040;-61
2023/07/06 07:58:26;;;;;;;0.73;0.32;;;22.90;55.40;;;;;;6110743;23;20052;-60
2023/07/06 08:04:39;;;;;;;0.95;0.50;;;23.20;53.70;;;;;;6061165;29;20267;-59
2023/07/06 08:07:46;;;;;;;0.95;0.40;;;23.30;55.10;;;;;;6046636;29;20040;-59
2023/07/06 08:14:34;;;;;;;1.15;0.40;;;23.10;53.00;;;;;;6112138;23;20052;-60
2023/07/06 08:17:36;;;;;;;3.95;0.60;;;23.40;54.50;;;;;;6106226;29;20119;-61
2023/07/06 08:20:38;;;;;;;0.82;0.32;;;23.20;54.20;;;;;;6089515;29;20050;-59
2023/07/06 08:24:00;;;;;;;1.05;0.50;;;22.30;53.70;;;;;;6082583;29;20118;-60
2023/07/06 08:27:02;;;;;;;1.05;0.80;;;23.40;54.50;;;;;;6085965;29;20134;-59
2023/07/06 08:30:07;;;;;;;0.65;0.43;;;23.30;53.90;;;;;;6105657;29;20067;-59
2023/07/06 08:33:13;;;;;;;0.55;0.40;;;23.40;53.80;;;;;;6063377;29;20142;-60
2023/07/06 08:36:18;;;;;;;3.33;0.50;;;23.30;52.10;;;;;;6083412;29;20526;-60
2023/07/06 08:39:22;;;;;;;0.52;0.45;;;22.00;53.10;;;;;;6110152;28;20064;-60
2023/07/06 08:42:25;;;;;;;1.23;0.47;;;23.30;53.30;;;;;;6076544;29;20793;-59
2023/07/06 08:45:36;;;;;;;0.88;0.40;;;23.40;53.40;;;;;;6096651;29;20043;-58
2023/07/06 08:48:38;;;;;;;0.95;0.40;;;22.50;52.50;;;;;;6097588;29;20040;-58
2023/07/06 08:51:41;;;;;;;1.55;0.50;;;23.40;52.90;;;;;;6119484;28;20035;-58
2023/07/06 08:54:46;;;;;;;0.80;0.50;;;23.50;53.00;;;;;;6086173;29;20051;-60
2023/07/06 08:57:49;;;;;;;1.30;0.45;;;23.00;52.50;;;;;;6084068;29;20641;-61
2023/07/06 09:00:55;;;;;;;2.13;0.60;;;23.40;52.60;;;;;;6102836;28;20031;-60
2023/07/06 09:04:01;;;;;;;0.93;0.50;;;23.50;52.50;;;;;;6320197;23;20044;-58
2023/07/06 09:07:04;;;;;;;1.00;0.60;;;23.50;53.30;;;;;;6054163;29;20098;-59
2023/07/06 09:10:19;;;;;;;1.83;0.52;;;23.40;52.40;;;;;;6092176;28;20043;-57
2023/07/06 09:13:28;;;;;;;0.68;0.40;;;23.20;50.40;;;;;;6088590;29;20078;-58
2023/07/06 09:16:34;;;;;;;1.15;0.65;;;23.60;52.20;;;;;;6084524;29;20046;-57
2023/07/06 09:19:38;;;;;;;0.80;0.40;;;23.10;51.70;;;;;;6082104;29;20036;-58
2023/07/06 09:22:44;;;;;;;0.70;0.60;;;23.50;51.80;;;;;;6086802;29;20044;-58
2023/07/06 09:25:47;;;;;;;1.80;0.43;;;23.50;49.80;;;;;;6077481;29;20048;-57
2023/07/06 09:28:51;;;;;;;0.90;0.75;;;23.30;51.00;;;;;;6087963;29;20123;-58
2023/07/06 09:32:13;;;;;;;1.55;1.02;;;23.60;51.60;;;;;;6089755;29;20104;-59
2023/07/06 09:35:20;;;;;;;2.30;1.00;;;23.60;51.40;;;;;;6085955;29;20126;-59
2023/07/06 09:38:24;;;;;;;1.65;0.73;;;23.30;51.80;;;;;;6072025;29;20726;-58
2023/07/06 09:41:29;;;;;;;1.05;0.70;;;23.20;51.00;;;;;;6069167;29;20043;-58
2023/07/06 09:44:35;;;;;;;1.60;0.75;;;23.60;51.20;;;;;;6086800;29;20045;-58
2023/07/06 09:47:40;;;;;;;1.02;0.60;;;23.50;50.80;;;;;;6057998;29;20141;-59
2023/07/06 09:50:48;;;;;;;1.80;0.80;;;23.20;51.30;;;;;;6085991;29;20083;-58
2023/07/06 09:53:55;;;;;;;1.00;0.80;;;23.50;51.00;;;;;;6052230;29;20036;-58
2023/07/06 09:57:10;;;;;;;1.25;0.52;;;23.60;51.20;;;;;;6025248;29;20044;-52
2023/07/06 10:00:17;;;;;;;1.10;0.77;;;23.60;50.40;;;;;;6066655;29;20044;-58
2023/07/06 10:03:32;;;;;;;1.48;0.68;;;23.70;50.80;;;;;;6069607;29;20825;-58
2023/07/06 10:06:49;;;;;;;2.42;0.75;;;23.50;50.40;;;;;;6044668;29;20036;-61
2023/07/06 10:09:59;;;;;;;1.13;0.80;;;23.80;51.20;;;;;;6035923;29;20035;-58
2023/07/06 10:13:07;;;;;;;1.42;0.75;;;24.00;50.70;;;;;;6063853;29;20035;-60
2023/07/06 10:16:21;;;;;;;1.63;0.80;;;23.70;50.20;;;;;;6037689;29;20074;-60
2023/07/06 10:19:29;;;;;;;1.75;0.88;;;23.90;50.20;;;;;;6059472;29;20226;-59
2023/07/06 10:22:37;;;;;;;2.65;0.90;;;23.50;49.80;;;;;;6069626;29;20708;-60
2023/07/06 10:25:46;;;;;;;2.13;0.95;;;23.70;49.60;;;;;;6066862;29;20039;-61
2023/07/06 10:28:54;;;;;;;1.30;0.70;;;23.80;49.60;;;;;;6078905;29;20043;-59
2023/07/06 10:32:05;;;;;;;1.38;0.73;;;24.00;49.50;;;;;;6102007;23;20044;-58
2023/07/06 10:35:18;;;;;;;1.13;0.50;;;23.90;49.40;;;;;;6073529;29;20066;-60
2023/07/06 10:38:20;;;;;;;0.88;0.63;;;24.00;49.40;;;;;;6072146;29;20118;-59
2023/07/06 10:41:31;;;;;;;1.05;0.68;;;24.00;49.30;;;;;;6078587;29;20040;-60
2023/07/06 10:44:46;;;;;;;2.72;0.57;;;24.10;49.10;;;;;;6073873;29;20134;-59
2023/07/06 10:47:51;;;;;;;0.80;0.45;;;24.00;49.00;;;;;;6079922;29;20969;-59
2023/07/06 10:51:09;;;;;;;1.15;0.57;;;24.00;48.80;;;;;;6072108;29;20885;-60
2023/07/06 10:54:19;;;;;;;1.45;0.50;;;23.90;48.50;;;;;;6072807;29;20039;-58
2023/07/06 10:57:21;;;;;;;0.70;0.57;;;24.10;48.40;;;;;;6090546;29;20040;-58
2023/07/06 11:00:33;;;;;;;1.77;0.60;;;24.10;48.30;;;;;;6081040;29;20059;-58
2023/07/06 11:03:36;;;;;;;0.93;0.70;;;24.00;48.00;;;;;;6091018;29;20039;-56
2023/07/06 11:06:52;;;;;;;0.85;0.38;;;24.20;48.10;;;;;;6064973;29;20032;-57
2023/07/06 11:10:16;;;;;;;0.98;0.60;;;24.10;47.80;;;;;;6074638;29;20043;-54
2023/07/06 11:13:20;;;;;;;1.10;0.40;;;24.20;47.50;;;;;;6097101;29;20077;-58
2023/07/06 11:16:27;;;;;;;1.13;0.57;;;24.00;47.70;;;;;;6052252;29;20107;-59
2023/07/06 11:19:34;;;;;;;0.93;0.55;;;24.40;47.50;;;;;;6058024;29;20031;-59
2023/07/06 11:22:37;;;;;;;1.35;0.60;;;24.00;47.20;;;;;;6026920;29;20032;-59
2023/07/06 11:25:45;;;;;;;0.40;0.35;;;24.30;47.50;;;;;;6054306;29;20046;-59
2023/07/06 11:28:51;;;;;;;1.20;0.60;;;24.20;47.10;;;;;;6057213;29;20044;-59
2023/07/06 11:32:07;;;;;;;1.15;0.57;;;23.80;46.80;;;;;;6029855;29;20032;-60
2023/07/06 11:35:31;;;;;;;1.67;0.75;;;24.50;47.10;;;;;;6039290;29;20039;-59
2023/07/06 11:38:57;;;;;;;1.65;0.40;;;24.40;46.80;;;;;;6058513;29;20032;-59
2023/07/06 11:41:59;;;;;;;0.68;0.63;;;24.20;46.60;;;;;;6040859;29;20848;-59
2023/07/06 11:45:12;;;;;;;2.03;0.60;;;24.60;46.90;;;;;;6067919;29;20047;-59
2023/07/06 11:48:26;;;;;;;3.33;0.75;;;24.60;46.30;;;;;;6091470;29;20088;-59
2023/07/06 11:51:29;;;;;;;2.20;0.68;;;24.70;46.90;;;;;;6056442;29;20448;-59
2023/07/06 11:54:43;;;;;;;0.90;0.55;;;24.70;46.30;;;;;;6084926;29;20059;-59
2023/07/06 11:58:04;;;;;;;0.85;0.60;;;24.10;45.60;;;;;;6087994;29;20609;-59
2023/07/06 12:01:31;;;;;;;1.05;0.63;;;24.90;45.90;;;;;;6085573;29;20116;-59
2023/07/06 12:04:40;;;;;;;1.63;0.60;;;24.20;45.50;;;;;;6089202;29;20219;-59
2023/07/06 12:07:44;;;;;;;1.17;0.50;;;24.70;45.60;;;;;;6083086;29;20043;-59
2023/07/06 12:10:50;;;;;;;0.40;0.40;;;24.70;45.50;;;;;;6086956;29;20210;-59
2023/07/06 12:13:54;;;;;;;1.60;0.80;;;24.70;45.50;;;;;;6046176;29;20716;-59
2023/07/06 12:16:57;;;;;;;1.17;0.50;;;24.30;45.30;;;;;;6050954;29;20055;-59
2023/07/06 12:19:59;;;;;;;1.38;0.55;;;24.70;45.90;;;;;;6061129;29;20032;-59
2023/07/06 12:23:01;;;;;;;0.80;0.60;;;24.60;45.30;;;;;;6063389;29;20086;-59
2023/07/06 12:26:07;;;;;;;0.80;0.50;;;24.60;45.40;;;;;;6059967;29;20048;-59
2023/07/06 12:29:08;;;;;;;0.77;0.50;;;24.60;45.20;;;;;;6093987;29;20567;-59
2023/07/06 12:32:15;;;;;;;0.63;0.50;;;24.70;45.40;;;;;;6088844;29;20613;-58
2023/07/06 12:35:27;;;;;;;0.80;0.47;;;24.80;45.40;;;;;;6092168;29;20062;-58
2023/07/06 12:38:34;;;;;;;2.22;0.73;;;24.90;45.30;;;;;;6047663;29;20111;-58
2023/07/06 12:41:37;;;;;;;0.60;0.40;;;24.70;45.30;;;;;;6058346;29;20043;-59
2023/07/06 12:44:39;;;;;;;0.47;0.43;;;24.70;45.50;;;;;;6053482;29;20106;-58
2023/07/06 12:47:42;;;;;;;0.95;0.50;;;24.70;45.10;;;;;;6032217;29;20055;-59
2023/07/06 12:50:47;;;;;;;1.10;0.57;;;24.30;45.50;;;;;;6065244;29;20824;-59
2023/07/06 12:53:50;;;;;;;0.60;0.50;;;24.70;44.90;;;;;;6065011;29;20043;-58
2023/07/06 12:57:02;;;;;;;1.58;0.95;;;24.80;44.90;;;;;;6054797;29;20434;-59
2023/07/06 13:00:15;;;;;;;1.65;0.60;;;24.70;45.40;;;;;;6063621;29;20051;-58
2023/07/06 13:03:17;;;;;;;0.63;0.40;;;24.80;44.70;;;;;;6063733;29;20099;-59
2023/07/06 13:06:21;;;;;;;0.77;0.50;;;24.70;44.50;;;;;;6068936;29;20055;-59
2023/07/06 13:09:29;;;;;;;1.42;0.63;;;24.80;44.80;;;;;;6066806;29;20098;-58
2023/07/06 13:12:31;;;;;;;1.02;0.52;;;24.80;44.20;;;;;;6045188;29;20090;-59
2023/07/06 13:15:39;;;;;;;0.98;0.68;;;24.80;44.30;;;;;;6062204;29;20690;-58
2023/07/06 13:18:43;;;;;;;0.70;0.50;;;24.70;44.00;;;;;;6061357;29;20032;-58
2023/07/06 13:21:44;;;;;;;0.52;0.47;;;24.80;44.60;;;;;;6084478;29;20039;-59
2023/07/06 13:24:46;;;;;;;1.17;0.60;;;24.90;44.00;;;;;;6069008;28;20120;-58
2023/07/06 13:27:51;;;;;;;1.23;0.77;;;25.90;44.50;;;;;;6073523;29;20043;-58
2023/07/06 13:30:54;;;;;;;1.73;0.70;;;24.80;43.60;;;;;;6063650;29;20793;-59
2023/07/06 13:33:56;;;;;;;0.60;0.52;;;24.90;43.90;;;;;;6048183;29;20031;-58
2023/07/06 13:36:59;;;;;;;0.80;0.50;;;24.80;44.50;;;;;;6031131;29;20028;-58
2023/07/06 13:40:06;;;;;;;0.93;0.60;;;24.70;44.20;;;;;;6043766;29;20031;-58
2023/07/06 13:43:14;;;;;;;1.45;0.60;;;24.90;44.40;;;;;;6064883;29;20043;-58
2023/07/06 13:46:16;;;;;;;0.93;0.60;;;24.70;44.20;;;;;;6049639;29;20047;-58
2023/07/06 13:49:18;;;;;;;0.95;0.65;;;24.70;43.60;;;;;;6037360;29;20110;-59
2023/07/06 13:52:20;;;;;;;0.80;0.77;;;25.20;44.50;;;;;;6045565;29;20043;-59
2023/07/06 13:55:26;;;;;;;1.45;0.52;;;26.00;44.30;;;;;;6054254;29;20091;-58
2023/07/06 13:58:30;;;;;;;0.75;0.60;;;24.70;44.10;;;;;;6031769;29;20110;-59
2023/07/06 14:01:31;;;;;;;0.98;0.50;;;24.80;43.90;;;;;;6073669;29;20838;-59
2023/07/06 14:04:33;;;;;;;0.88;0.60;;;24.80;43.30;;;;;;6073560;29;20035;-59
2023/07/06 14:07:35;;;;;;;2.38;0.60;;;24.90;43.10;;;;;;6071160;29;20796;-59
2023/07/06 14:10:37;;;;;;;0.93;0.75;;;24.90;42.90;;;;;;6072715;29;20044;-59
2023/07/06 14:13:39;;;;;;;2.17;0.80;;;24.80;43.20;;;;;;6072861;29;20042;-59
2023/07/06 14:16:51;;;;;;;1.42;0.80;;;24.70;42.30;;;;;;6073583;29;20036;-59
2023/07/06 14:19:53;;;;;;;1.15;0.63;;;24.90;43.00;;;;;;6071061;29;20686;-58
2023/07/06 14:23:06;;;;;;;0.93;0.70;;;24.90;42.30;;;;;;6077639;29;20127;-58
2023/07/06 14:26:09;;;;;;;0.60;0.50;;;24.60;42.00;;;;;;6068815;29;20628;-58
2023/07/06 14:29:13;;;;;;;1.67;0.63;;;24.80;42.00;;;;;;6061896;29;20040;-59
2023/07/06 14:32:15;;;;;;;1.50;0.70;;;24.90;41.90;;;;;;6057435;29;20801;-59
2023/07/06 14:35:17;;;;;;;0.70;0.55;;;24.70;42.00;;;;;;6060139;29;20047;-59
2023/07/06 14:38:20;;;;;;;1.38;0.80;;;24.80;41.80;;;;;;6058530;29;20035;-59
2023/07/06 14:41:23;;;;;;;0.95;0.57;;;25.50;42.60;;;;;;6061620;29;20024;-59
2023/07/06 14:44:28;;;;;;;1.20;0.60;;;24.90;42.00;;;;;;6064578;29;20652;-58
2023/07/06 14:47:29;;;;;;;1.00;0.40;;;24.90;41.70;;;;;;6061465;29;20039;-58
2023/07/06 14:50:33;;;;;;;0.80;0.40;;;24.50;41.40;;;;;;6046275;29;20058;-58
2023/07/06 14:53:36;;;;;;;1.10;0.55;;;24.70;41.30;;;;;;6045588;29;20035;-58
2023/07/06 14:56:39;;;;;;;0.98;0.50;;;24.50;41.00;;;;;;6038809;29;20036;-58
2023/07/06 14:59:42;;;;;;;0.75;0.45;;;24.90;41.40;;;;;;6066727;29;20119;-58
2023/07/06 15:02:46;;;;;;;1.38;0.77;;;24.90;41.00;;;;;;6070836;29;20039;-58
2023/07/06 15:05:48;;;;;;;0.90;0.70;;;24.90;41.60;;;;;;6064039;29;20048;-59
2023/07/06 15:08:49;;;;;;;1.17;0.55;;;25.00;41.50;;;;;;6069398;29;20047;-59
2023/07/06 15:11:51;;;;;;;0.85;0.65;;;24.90;40.40;;;;;;6069016;29;21005;-61
2023/07/06 15:14:55;;;;;;;0.73;0.50;;;24.90;40.80;;;;;;6069764;29;20713;-59
2023/07/06 15:17:57;;;;;;;1.02;0.65;;;24.90;40.40;;;;;;6089463;29;20051;-58
2023/07/06 15:21:08;;;;;;;1.10;0.60;;;23.70;39.60;;;;;;6071849;29;20045;-59
2023/07/06 15:24:10;;;;;;;1.35;0.45;;;25.00;39.70;;;;;;6110900;23;20039;-58
2023/07/06 15:27:12;;;;;;;1.13;0.70;;;24.60;39.40;;;;;;6257199;23;21054;-58
2023/07/06 15:30:18;;;;;;;0.57;0.45;;;25.00;39.80;;;;;;6151717;23;20062;-59
2023/07/06 15:33:20;;;;;;;1.00;0.55;;;25.10;39.00;;;;;;6060789;29;20796;-58
2023/07/06 15:36:22;;;;;;;1.20;0.68;;;25.10;39.70;;;;;;6048926;29;20032;-58
2023/07/06 15:39:24;;;;;;;0.63;0.50;;;24.90;39.50;;;;;;6052199;29;20040;-53
2023/07/06 15:42:26;;;;;;;1.10;0.60;;;25.00;39.40;;;;;;6063933;29;20051;-58
2023/07/06 15:45:28;;;;;;;0.65;0.45;;;25.00;39.90;;;;;;6063209;29;20036;-57
2023/07/06 15:48:30;;;;;;;1.63;0.82;;;25.10;39.20;;;;;;6039994;29;20040;-54
2023/07/06 15:51:33;;;;;;;0.77;0.50;;;25.00;39.30;;;;;;6055270;29;20040;-57
2023/07/06 15:54:34;;;;;;;0.70;0.60;;;25.00;39.80;;;;;;6075319;29;20925;-57
2023/07/06 15:57:39;;;;;;;1.63;0.68;;;24.80;39.10;;;;;;6042155;29;20069;-55
2023/07/06 16:00:42;;;;;;;1.10;0.57;;;24.90;39.20;;;;;;6023243;29;20082;-59
2023/07/06 16:03:43;;;;;;;1.10;0.60;;;24.90;39.30;;;;;;6021397;29;20039;-59
2023/07/06 16:06:47;;;;;;;0.75;0.60;;;25.00;39.40;;;;;;6046080;29;20035;-59
2023/07/06 16:09:51;;;;;;;0.98;0.73;;;25.00;39.90;;;;;;6034839;29;20028;-59
2023/07/06 16:12:53;;;;;;;0.75;0.52;;;24.80;39.10;;;;;;6041226;29;20043;-59
2023/07/06 16:15:55;;;;;;;1.27;0.60;;;25.00;39.40;;;;;;6046108;29;20035;-59
2023/07/06 16:18:57;;;;;;;1.60;0.70;;;24.90;39.10;;;;;;6072090;29;20110;-59
2023/07/06 16:21:59;;;;;;;0.70;0.60;;;24.80;38.90;;;;;;6088163;29;20040;-59
2023/07/06 16:25:00;;;;;;;1.10;0.70;;;24.90;39.00;;;;;;6099943;29;20118;-58
2023/07/06 16:28:02;;;;;;;0.90;0.70;;;25.10;39.00;;;;;;6100968;29;20612;-58
2023/07/06 16:31:05;;;;;;;1.00;0.60;;;24.90;38.80;;;;;;6087488;29;20146;-57
2023/07/06 16:34:07;;;;;;;1.42;0.73;;;25.20;38.90;;;;;;6084187;29;20704;-58
2023/07/06 16:37:11;;;;;;;0.82;0.70;;;25.30;38.90;;;;;;6114959;29;20527;-58
2023/07/06 16:40:13;;;;;;;1.52;1.00;;;25.40;38.70;;;;;;6115734;29;20051;-55
2023/07/06 16:43:16;;;;;;;0.73;0.60;;;25.30;38.50;;;;;;6133583;29;20044;-56
2023/07/06 16:46:19;;;;;;;1.20;0.90;;;25.30;38.20;;;;;;6131023;29;20063;-55
2023/07/06 16:49:21;;;;;;;1.13;0.95;;;25.60;38.30;;;;;;6129922;29;20070;-55
2023/07/06 16:52:24;;;;;;;1.95;0.90;;;25.60;38.10;;;;;;6116782;29;20065;-53
2023/07/06 16:55:25;;;;;;;0.90;0.60;;;25.70;38.00;;;;;;6125645;29;20050;-56
2023/07/06 16:58:29;;;;;;;1.42;0.65;;;25.30;37.40;;;;;;6131604;29;20043;-54